sensor_id;sensor_type;location;lat;lon;timestamp;pressure;altitude;pressure_sealevel;temperature;humidity
54876;BME280;40764;48.472;8.166;2023-04-15T00:03:54;97262.81;;;3.65;90.13
54876;BME280;40764;48.472;8.166;2023-04-15T00:09:54;97259.09;;;3.35;90.22
54876;BME280;40764;48.472;8.166;2023-04-15T00:15:56;97256.41;;;3.30;91.87
54876;BME280;40764;48.472;8.166;2023-04-15T00:21:58;97260.69;;;3.41;91.22
54876;BME280;40764;48.472;8.166;2023-04-15T00:27:59;97256.91;;;3.42;89.95
54876;BME280;40764;48.472;8.166;2023-04-15T00:34:00;97255.84;;;3.33;90.26
54876;BME280;40764;48.472;8.166;2023-04-15T00:40:01;97250.47;;;3.23;90.91
54876;BME280;40764;48.472;8.166;2023-04-15T00:46:05;97240.47;;;3.03;91.95
54876;BME280;40764;48.472;8.166;2023-04-15T00:52:06;97243.44;;;3.12;91.35
54876;BME280;40764;48.472;8.166;2023-04-15T00:58:08;97239.38;;;3.09;91.00
54876;BME280;40764;48.472;8.166;2023-04-15T01:04:09;97251.53;;;3.22;90.12
54876;BME280;40764;48.472;8.166;2023-04-15T01:10:10;97247.47;;;3.30;90.29
54876;BME280;40764;48.472;8.166;2023-04-15T01:16:11;97234.25;;;3.03;91.13
54876;BME280;40764;48.472;8.166;2023-04-15T01:22:12;97239.63;;;2.83;91.11
54876;BME280;40764;48.472;8.166;2023-04-15T01:28:13;97236.94;;;2.88;91.79
54876;BME280;40764;48.472;8.166;2023-04-15T01:34:13;97242.59;;;2.81;91.01
54876;BME280;40764;48.472;8.166;2023-04-15T01:40:13;97241.78;;;2.80;91.24
54876;BME280;40764;48.472;8.166;2023-04-15T01:46:14;97240.44;;;2.73;91.49
54876;BME280;40764;48.472;8.166;2023-04-15T01:52:14;97236.16;;;2.92;91.00
54876;BME280;40764;48.472;8.166;2023-04-15T01:58:15;97239.63;;;2.72;91.24
54876;BME280;40764;48.472;8.166;2023-04-15T02:04:15;97238.56;;;2.68;91.11
54876;BME280;40764;48.472;8.166;2023-04-15T02:10:16;97239.06;;;2.55;91.55
54876;BME280;40764;48.472;8.166;2023-04-15T02:16:17;97234.50;;;2.66;91.31
54876;BME280;40764;48.472;8.166;2023-04-15T02:22:18;97235.53;;;2.44;91.76
54876;BME280;40764;48.472;8.166;2023-04-15T02:28:18;97235.81;;;2.48;92.46
54876;BME280;40764;48.472;8.166;2023-04-15T02:34:18;97227.69;;;2.33;91.78
54876;BME280;40764;48.472;8.166;2023-04-15T02:40:19;97242.22;;;2.27;93.00
54876;BME280;40764;48.472;8.166;2023-04-15T02:46:19;97230.88;;;2.25;92.84
54876;BME280;40764;48.472;8.166;2023-04-15T02:52:21;97238.19;;;2.29;93.10
54876;BME280;40764;48.472;8.166;2023-04-15T02:58:23;97237.44;;;2.44;91.64
54876;BME280;40764;48.472;8.166;2023-04-15T03:04:23;97237.16;;;2.51;91.97
54876;BME280;40764;48.472;8.166;2023-04-15T03:10:24;97251.50;;;2.76;92.04
54876;BME280;40764;48.472;8.166;2023-04-15T03:16:24;97250.69;;;2.81;91.62
54876;BME280;40764;48.472;8.166;2023-04-15T03:22:24;97243.41;;;2.66;92.33
54876;BME280;40764;48.472;8.166;2023-04-15T03:28:25;97245.00;;;2.57;92.34
54876;BME280;40764;48.472;8.166;2023-04-15T03:34:26;97234.72;;;2.44;92.39
54876;BME280;40764;48.472;8.166;2023-04-15T03:40:26;97239.59;;;2.47;93.43
54876;BME280;40764;48.472;8.166;2023-04-15T03:46:26;97234.75;;;2.59;93.18
54876;BME280;40764;48.472;8.166;2023-04-15T03:52:27;97242.06;;;2.69;92.60
54876;BME280;40764;48.472;8.166;2023-04-15T03:58:27;97243.13;;;2.63;93.46
54876;BME280;40764;48.472;8.166;2023-04-15T04:04:27;97238.25;;;2.55;93.30
54876;BME280;40764;48.472;8.166;2023-04-15T04:10:28;97242.19;;;2.16;96.19
54876;BME280;40764;48.472;8.166;2023-04-15T04:16:28;97243.09;;;2.47;95.87
54876;BME280;40764;48.472;8.166;2023-04-15T04:22:28;97245.25;;;2.56;95.32
54876;BME280;40764;48.472;8.166;2023-04-15T04:28:29;97247.19;;;2.70;95.13
54876;BME280;40764;48.472;8.166;2023-04-15T04:34:29;97252.59;;;2.75;94.06
54876;BME280;40764;48.472;8.166;2023-04-15T04:40:29;97251.25;;;2.88;93.86
54876;BME280;40764;48.472;8.166;2023-04-15T04:46:30;97254.50;;;2.95;93.53
54876;BME280;40764;48.472;8.166;2023-04-15T04:52:30;97257.97;;;2.70;95.63
54876;BME280;40764;48.472;8.166;2023-04-15T04:58:31;97268.53;;;2.97;95.28
54876;BME280;40764;48.472;8.166;2023-04-15T05:04:31;97259.09;;;3.30;93.98
54876;BME280;40764;48.472;8.166;2023-04-15T05:10:31;97263.66;;;3.55;93.46
54876;BME280;40764;48.472;8.166;2023-04-15T05:16:32;97260.38;;;3.73;93.40
54876;BME280;40764;48.472;8.166;2023-04-15T05:22:32;97258.97;;;3.96;92.05
54876;BME280;40764;48.472;8.166;2023-04-15T05:28:32;97257.00;;;4.17;90.55
54876;BME280;40764;48.472;8.166;2023-04-15T05:34:33;97259.59;;;4.43;90.66
54876;BME280;40764;48.472;8.166;2023-04-15T05:40:33;97260.22;;;4.19;91.27
54876;BME280;40764;48.472;8.166;2023-04-15T05:46:33;97264.75;;;4.39;91.96
54876;BME280;40764;48.472;8.166;2023-04-15T05:52:34;97261.72;;;4.51;92.05
54876;BME280;40764;48.472;8.166;2023-04-15T05:58:34;97254.78;;;4.79;90.22
54876;BME280;40764;48.472;8.166;2023-04-15T06:04:35;97255.38;;;5.10;89.04
54876;BME280;40764;48.472;8.166;2023-04-15T06:10:36;97259.25;;;5.33;87.36
54876;BME280;40764;48.472;8.166;2023-04-15T06:16:36;97261.69;;;5.63;86.99
54876;BME280;40764;48.472;8.166;2023-04-15T06:22:37;97255.28;;;6.07;85.55
54876;BME280;40764;48.472;8.166;2023-04-15T06:28:40;97251.06;;;6.43;85.84
54876;BME280;40764;48.472;8.166;2023-04-15T06:34:41;97252.16;;;6.80;84.40
54876;BME280;40764;48.472;8.166;2023-04-15T06:40:41;97246.97;;;6.83;81.97
54876;BME280;40764;48.472;8.166;2023-04-15T06:46:42;97258.47;;;7.13;81.96
54876;BME280;40764;48.472;8.166;2023-04-15T06:52:42;97247.09;;;7.43;81.04
54876;BME280;40764;48.472;8.166;2023-04-15T06:58:42;97253.63;;;7.75;80.86
54876;BME280;40764;48.472;8.166;2023-04-15T07:04:43;97251.94;;;7.93;78.76
54876;BME280;40764;48.472;8.166;2023-04-15T07:10:43;97249.94;;;8.12;75.42
54876;BME280;40764;48.472;8.166;2023-04-15T07:16:43;97239.03;;;8.53;74.63
54876;BME280;40764;48.472;8.166;2023-04-15T07:22:44;97238.94;;;8.58;75.06
54876;BME280;40764;48.472;8.166;2023-04-15T07:28:44;97241.91;;;8.84;73.99
54876;BME280;40764;48.472;8.166;2023-04-15T07:34:46;97235.56;;;8.75;72.24
54876;BME280;40764;48.472;8.166;2023-04-15T07:40:46;97229.34;;;9.19;69.75
54876;BME280;40764;48.472;8.166;2023-04-15T07:46:47;97230.03;;;9.47;69.03
54876;BME280;40764;48.472;8.166;2023-04-15T07:52:51;97234.75;;;9.86;69.07
54876;BME280;40764;48.472;8.166;2023-04-15T07:58:52;97229.91;;;10.14;67.85
54876;BME280;40764;48.472;8.166;2023-04-15T08:04:52;97222.91;;;10.39;66.30
54876;BME280;40764;48.472;8.166;2023-04-15T08:10:53;97228.00;;;10.80;64.45
54876;BME280;40764;48.472;8.166;2023-04-15T08:16:53;97226.91;;;11.07;62.07
54876;BME280;40764;48.472;8.166;2023-04-15T08:22:53;97229.78;;;11.37;61.49
54876;BME280;40764;48.472;8.166;2023-04-15T08:28:54;97231.97;;;11.69;59.76
54876;BME280;40764;48.472;8.166;2023-04-15T08:34:54;97241.25;;;12.03;58.76
54876;BME280;40764;48.472;8.166;2023-04-15T08:40:55;97255.50;;;12.26;56.32
54876;BME280;40764;48.472;8.166;2023-04-15T08:47:00;97261.25;;;11.77;56.17
54876;BME280;40764;48.472;8.166;2023-04-15T08:53:01;97260.16;;;11.78;56.73
54876;BME280;40764;48.472;8.166;2023-04-15T08:59:01;97259.50;;;11.73;56.53
54876;BME280;40764;48.472;8.166;2023-04-15T09:05:03;97274.50;;;11.58;56.70
54876;BME280;40764;48.472;8.166;2023-04-15T09:11:05;97288.81;;;11.72;57.12
54876;BME280;40764;48.472;8.166;2023-04-15T09:17:09;97281.25;;;11.78;56.83
54876;BME280;40764;48.472;8.166;2023-04-15T09:23:13;97295.66;;;12.13;56.73
54876;BME280;40764;48.472;8.166;2023-04-15T09:29:14;97293.28;;;12.50;56.45
54876;BME280;40764;48.472;8.166;2023-04-15T09:35:15;97296.34;;;12.48;56.18
54876;BME280;40764;48.472;8.166;2023-04-15T09:41:18;97311.56;;;12.66;54.57
54876;BME280;40764;48.472;8.166;2023-04-15T09:47:31;97302.97;;;12.47;54.46
54876;BME280;40764;48.472;8.166;2023-04-15T09:53:33;97298.19;;;12.65;55.00
54876;BME280;40764;48.472;8.166;2023-04-15T09:59:34;97305.75;;;12.97;54.55
54876;BME280;40764;48.472;8.166;2023-04-15T10:05:36;97314.63;;;13.03;54.62
54876;BME280;40764;48.472;8.166;2023-04-15T10:11:36;97321.38;;;13.35;52.99
54876;BME280;40764;48.472;8.166;2023-04-15T10:17:37;97320.69;;;13.17;52.12
54876;BME280;40764;48.472;8.166;2023-04-15T10:23:41;97327.56;;;12.94;53.06
54876;BME280;40764;48.472;8.166;2023-04-15T10:29:41;97329.28;;;13.37;51.66
54876;BME280;40764;48.472;8.166;2023-04-15T10:35:43;97329.13;;;13.54;51.26
54876;BME280;40764;48.472;8.166;2023-04-15T10:41:44;97326.94;;;13.80;50.79
54876;BME280;40764;48.472;8.166;2023-04-15T10:47:44;97326.81;;;13.98;50.47
54876;BME280;40764;48.472;8.166;2023-04-15T10:53:44;97329.66;;;13.89;50.62
54876;BME280;40764;48.472;8.166;2023-04-15T11:06:04;97336.97;;;14.42;48.98
54876;BME280;40764;48.472;8.166;2023-04-15T11:12:08;97340.50;;;14.51;47.83
54876;BME280;40764;48.472;8.166;2023-04-15T11:24:09;97345.72;;;14.44;48.78
54876;BME280;40764;48.472;8.166;2023-04-15T11:30:18;97345.91;;;14.84;45.96
54876;BME280;40764;48.472;8.166;2023-04-15T11:36:20;97363.56;;;14.83;45.49
54876;BME280;40764;48.472;8.166;2023-04-15T11:42:20;97365.03;;;14.93;44.27
54876;BME280;40764;48.472;8.166;2023-04-15T11:48:31;97360.56;;;15.25;41.41
54876;BME280;40764;48.472;8.166;2023-04-15T11:54:32;97370.19;;;15.43;40.30
54876;BME280;40764;48.472;8.166;2023-04-15T12:00:32;97392.63;;;15.58;37.83
54876;BME280;40764;48.472;8.166;2023-04-15T12:06:33;97370.63;;;15.98;36.77
54876;BME280;40764;48.472;8.166;2023-04-15T12:12:35;97380.16;;;16.00;35.66
54876;BME280;40764;48.472;8.166;2023-04-15T12:18:39;97395.19;;;15.63;34.87
54876;BME280;40764;48.472;8.166;2023-04-15T12:24:40;97408.69;;;15.80;33.99
54876;BME280;40764;48.472;8.166;2023-04-15T12:30:49;97407.69;;;15.60;33.41
54876;BME280;40764;48.472;8.166;2023-04-15T12:36:50;97429.28;;;15.70;34.54
54876;BME280;40764;48.472;8.166;2023-04-15T12:42:51;97436.84;;;15.37;34.58
54876;BME280;40764;48.472;8.166;2023-04-15T12:48:51;97456.59;;;15.63;34.62
54876;BME280;40764;48.472;8.166;2023-04-15T12:54:52;97461.28;;;15.75;34.44
54876;BME280;40764;48.472;8.166;2023-04-15T13:00:52;97462.88;;;15.76;34.41
54876;BME280;40764;48.472;8.166;2023-04-15T13:06:53;97467.47;;;15.84;33.56
54876;BME280;40764;48.472;8.166;2023-04-15T13:12:53;97476.63;;;15.88;32.83
54876;BME280;40764;48.472;8.166;2023-04-15T13:18:55;97477.22;;;16.34;32.70
54876;BME280;40764;48.472;8.166;2023-04-15T13:24:56;97472.66;;;16.54;30.33
54876;BME280;40764;48.472;8.166;2023-04-15T13:30:56;97486.09;;;16.27;29.95
54876;BME280;40764;48.472;8.166;2023-04-15T13:36:57;97495.53;;;16.54;29.20
54876;BME280;40764;48.472;8.166;2023-04-15T13:42:57;97503.66;;;16.91;29.40
54876;BME280;40764;48.472;8.166;2023-04-15T13:48:59;97509.88;;;16.60;30.97
54876;BME280;40764;48.472;8.166;2023-04-15T13:54:59;97518.47;;;16.30;32.67
54876;BME280;40764;48.472;8.166;2023-04-15T14:00:59;97523.09;;;16.14;32.56
54876;BME280;40764;48.472;8.166;2023-04-15T14:07:00;97530.03;;;15.84;32.62
54876;BME280;40764;48.472;8.166;2023-04-15T14:13:00;97529.25;;;15.95;32.92
54876;BME280;40764;48.472;8.166;2023-04-15T14:19:01;97540.16;;;16.44;33.36
54876;BME280;40764;48.472;8.166;2023-04-15T14:25:02;97539.34;;;16.43;34.81
54876;BME280;40764;48.472;8.166;2023-04-15T14:31:02;97560.25;;;15.92;36.32
54876;BME280;40764;48.472;8.166;2023-04-15T14:37:03;97568.97;;;15.70;36.80
54876;BME280;40764;48.472;8.166;2023-04-15T14:43:04;97572.88;;;15.69;37.50
54876;BME280;40764;48.472;8.166;2023-04-15T14:49:04;97572.59;;;15.37;38.32
54876;BME280;40764;48.472;8.166;2023-04-15T14:55:07;97588.31;;;15.49;38.09
54876;BME280;40764;48.472;8.166;2023-04-15T15:01:07;97583.94;;;15.36;38.58
54876;BME280;40764;48.472;8.166;2023-04-15T15:07:08;97600.75;;;15.22;39.27
54876;BME280;40764;48.472;8.166;2023-04-15T15:13:09;97612.47;;;15.31;38.97
54876;BME280;40764;48.472;8.166;2023-04-15T15:19:09;97613.16;;;15.28;40.10
54876;BME280;40764;48.472;8.166;2023-04-15T15:25:10;97609.94;;;14.93;40.16
54876;BME280;40764;48.472;8.166;2023-04-15T15:31:10;97615.13;;;14.74;40.33
54876;BME280;40764;48.472;8.166;2023-04-15T15:37:11;97621.84;;;14.35;41.29
54876;BME280;40764;48.472;8.166;2023-04-15T15:43:11;97629.69;;;14.24;41.91
54876;BME280;40764;48.472;8.166;2023-04-15T15:49:11;97637.16;;;14.15;42.41
54876;BME280;40764;48.472;8.166;2023-04-15T15:55:12;97653.19;;;14.13;42.38
54876;BME280;40764;48.472;8.166;2023-04-15T16:01:12;97644.91;;;13.92;43.47
54876;BME280;40764;48.472;8.166;2023-04-15T16:07:12;97647.00;;;13.86;43.69
54876;BME280;40764;48.472;8.166;2023-04-15T16:13:14;97655.22;;;13.95;44.28
54876;BME280;40764;48.472;8.166;2023-04-15T16:19:15;97660.59;;;13.91;44.20
54876;BME280;40764;48.472;8.166;2023-04-15T16:25:16;97669.22;;;13.73;45.09
54876;BME280;40764;48.472;8.166;2023-04-15T16:31:16;97687.00;;;13.67;45.48
54876;BME280;40764;48.472;8.166;2023-04-15T16:37:16;97686.69;;;13.68;46.06
54876;BME280;40764;48.472;8.166;2023-04-15T16:43:17;97698.44;;;13.77;45.98
54876;BME280;40764;48.472;8.166;2023-04-15T16:49:17;97705.28;;;13.54;47.22
54876;BME280;40764;48.472;8.166;2023-04-15T16:55:17;97707.59;;;13.35;47.28
54876;BME280;40764;48.472;8.166;2023-04-15T17:01:19;97721.00;;;13.36;46.49
54876;BME280;40764;48.472;8.166;2023-04-15T17:07:19;97742.13;;;13.18;47.05
54876;BME280;40764;48.472;8.166;2023-04-15T17:13:20;97745.50;;;13.15;47.31
54876;BME280;40764;48.472;8.166;2023-04-15T17:19:21;97754.19;;;12.91;48.29
54876;BME280;40764;48.472;8.166;2023-04-15T17:25:21;97761.78;;;12.86;48.11
54876;BME280;40764;48.472;8.166;2023-04-15T17:31:22;97772.06;;;12.71;48.39
54876;BME280;40764;48.472;8.166;2023-04-15T17:37:22;97792.38;;;12.70;48.09
54876;BME280;40764;48.472;8.166;2023-04-15T17:43:22;97794.94;;;12.50;50.25
54876;BME280;40764;48.472;8.166;2023-04-15T17:49:23;97814.75;;;12.47;48.84
54876;BME280;40764;48.472;8.166;2023-04-15T17:55:23;97823.06;;;12.33;47.78
54876;BME280;40764;48.472;8.166;2023-04-15T18:01:24;97834.34;;;12.31;47.72
54876;BME280;40764;48.472;8.166;2023-04-15T18:07:25;97849.34;;;12.34;47.40
54876;BME280;40764;48.472;8.166;2023-04-15T18:13:25;97880.44;;;12.29;48.02
54876;BME280;40764;48.472;8.166;2023-04-15T18:19:25;97897.56;;;12.13;49.39
54876;BME280;40764;48.472;8.166;2023-04-15T18:25:26;97923.69;;;11.88;51.19
54876;BME280;40764;48.472;8.166;2023-04-15T18:31:26;97928.53;;;11.77;52.50
54876;BME280;40764;48.472;8.166;2023-04-15T18:37:27;97945.66;;;11.60;55.00
54876;BME280;40764;48.472;8.166;2023-04-15T18:43:30;97962.59;;;11.48;56.51
54876;BME280;40764;48.472;8.166;2023-04-15T18:49:31;97988.44;;;11.42;57.01
54876;BME280;40764;48.472;8.166;2023-04-15T18:55:32;97994.44;;;11.17;59.11
54876;BME280;40764;48.472;8.166;2023-04-15T19:01:32;98008.19;;;10.98;60.51
54876;BME280;40764;48.472;8.166;2023-04-15T19:07:33;98023.50;;;10.99;61.21
54876;BME280;40764;48.472;8.166;2023-04-15T19:13:34;98041.78;;;10.71;63.56
54876;BME280;40764;48.472;8.166;2023-04-15T19:19:34;98046.38;;;10.57;65.90
54876;BME280;40764;48.472;8.166;2023-04-15T19:25:35;98051.84;;;10.57;66.43
54876;BME280;40764;48.472;8.166;2023-04-15T19:31:36;98068.06;;;10.35;68.48
54876;BME280;40764;48.472;8.166;2023-04-15T19:37:36;98063.22;;;10.08;70.59
54876;BME280;40764;48.472;8.166;2023-04-15T19:43:36;98081.19;;;10.14;71.33
54876;BME280;40764;48.472;8.166;2023-04-15T19:49:37;98079.25;;;9.96;73.09
54876;BME280;40764;48.472;8.166;2023-04-15T19:55:37;98080.50;;;10.03;73.05
54876;BME280;40764;48.472;8.166;2023-04-15T20:01:38;98097.16;;;9.83;76.26
54876;BME280;40764;48.472;8.166;2023-04-15T20:07:38;98101.19;;;9.67;77.93
54876;BME280;40764;48.472;8.166;2023-04-15T20:13:41;98106.22;;;9.78;78.50
54876;BME280;40764;48.472;8.166;2023-04-15T20:19:41;98102.25;;;9.71;79.40
54876;BME280;40764;48.472;8.166;2023-04-15T20:25:42;98099.13;;;9.58;81.90
54876;BME280;40764;48.472;8.166;2023-04-15T20:31:42;98110.97;;;9.20;86.20
54876;BME280;40764;48.472;8.166;2023-04-15T20:37:43;98118.94;;;9.16;87.19
54876;BME280;40764;48.472;8.166;2023-04-15T20:43:44;98117.75;;;8.98;90.97
54876;BME280;40764;48.472;8.166;2023-04-15T20:49:44;98117.53;;;9.19;92.25
54876;BME280;40764;48.472;8.166;2023-04-15T20:55:46;98122.47;;;9.17;92.53
54876;BME280;40764;48.472;8.166;2023-04-15T21:01:46;98131.63;;;9.02;94.24
54876;BME280;40764;48.472;8.166;2023-04-15T21:07:47;98130.00;;;9.01;94.11
54876;BME280;40764;48.472;8.166;2023-04-15T21:13:47;98134.13;;;8.98;93.29
54876;BME280;40764;48.472;8.166;2023-04-15T21:19:47;98140.28;;;9.09;93.75
54876;BME280;40764;48.472;8.166;2023-04-15T21:25:48;98140.66;;;8.97;93.46
54876;BME280;40764;48.472;8.166;2023-04-15T21:31:49;98148.59;;;9.23;92.10
54876;BME280;40764;48.472;8.166;2023-04-15T21:37:49;98148.34;;;9.19;92.41
54876;BME280;40764;48.472;8.166;2023-04-15T21:43:49;98149.78;;;9.12;92.72
54876;BME280;40764;48.472;8.166;2023-04-15T21:49:50;98160.00;;;9.01;94.04
54876;BME280;40764;48.472;8.166;2023-04-15T21:55:50;98161.00;;;9.10;93.64
54876;BME280;40764;48.472;8.166;2023-04-15T22:01:50;98170.97;;;8.91;95.54
54876;BME280;40764;48.472;8.166;2023-04-15T22:07:51;98186.34;;;9.11;94.67
54876;BME280;40764;48.472;8.166;2023-04-15T22:13:52;98179.44;;;9.18;94.68
54876;BME280;40764;48.472;8.166;2023-04-15T22:19:53;98180.94;;;9.06;95.07
54876;BME280;40764;48.472;8.166;2023-04-15T22:25:53;98181.63;;;8.87;97.21
54876;BME280;40764;48.472;8.166;2023-04-15T22:31:53;98190.81;;;9.02;97.42
54876;BME280;40764;48.472;8.166;2023-04-15T22:37:54;98192.19;;;8.94;98.16
54876;BME280;40764;48.472;8.166;2023-04-15T22:43:55;98189.75;;;8.97;97.58
54876;BME280;40764;48.472;8.166;2023-04-15T22:49:55;98192.41;;;9.03;97.73
54876;BME280;40764;48.472;8.166;2023-04-15T22:55:55;98204.88;;;9.14;97.55
54876;BME280;40764;48.472;8.166;2023-04-15T23:01:56;98211.56;;;8.97;98.54
54876;BME280;40764;48.472;8.166;2023-04-15T23:07:58;98206.66;;;8.94;98.29
54876;BME280;40764;48.472;8.166;2023-04-15T23:13:58;98211.19;;;9.09;98.78
54876;BME280;40764;48.472;8.166;2023-04-15T23:19:59;98219.31;;;8.80;100.00
54876;BME280;40764;48.472;8.166;2023-04-15T23:25:59;98223.31;;;8.88;100.00
54876;BME280;40764;48.472;8.166;2023-04-15T23:32:00;98227.91;;;8.97;99.54
54876;BME280;40764;48.472;8.166;2023-04-15T23:38:00;98225.44;;;9.01;99.29
54876;BME280;40764;48.472;8.166;2023-04-15T23:44:01;98225.81;;;8.84;98.69
54876;BME280;40764;48.472;8.166;2023-04-15T23:50:01;98226.91;;;8.83;99.50
54876;BME280;40764;48.472;8.166;2023-04-15T23:56:01;98234.31;;;8.78;100.00
